Time;durP1;ratioP1;P1;durP2;ratioP2;P2;SDS_P1;SDS_P2;PMS_P1;PMS_P2;Temp;Humidity;BMP_temperature;BMP_pressure;BME280_temperature;BME280_humidity;BME280_pressure;Samples;Min_cycle;Max_cycle;Signal;HPM_P1;HPM_P2
2022/02/06 00:00:39;;;;;;;;;;;;;;;2.39;91.06;97422.63;4986308;28;19929;-61
2022/02/06 00:03:06;;;;;;;;;;;;;;;2.40;91.03;97418.78;4986495;28;20644;-60
2022/02/06 00:05:32;;;;;;;;;;;;;;;2.39;90.59;97428.09;4986454;28;20446;-61
2022/02/06 00:08:04;;;;;;;;;;;;;;;2.39;90.96;97419.88;4986640;28;20278;-61
2022/02/06 00:10:30;;;;;;;;;;;;;;;2.27;91.31;97414.97;4986217;28;19929;-61
2022/02/06 00:12:57;;;;;;;;;;;;;;;2.24;91.88;97409.31;4985593;28;19930;-61
2022/02/06 00:15:23;;;;;;;;;;;;;;;2.25;91.43;97424.59;4986135;28;19957;-63
2022/02/06 00:17:50;;;;;;;;;;;;;;;2.32;91.15;97427.72;4985650;28;19974;-61
2022/02/06 00:20:17;;;;;;;;;;;;;;;2.44;90.39;97408.84;4986299;28;20451;-60
2022/02/06 00:22:57;;;;;;;;;;;;;;;2.40;90.29;97413.31;4985947;28;19981;-60
2022/02/06 00:25:38;;;;;;;;;;;;;;;2.49;89.27;97416.94;4986371;28;19949;-60
2022/02/06 00:30:51;;;;;;;;;;;;;;;2.66;86.34;97417.06;4985642;28;19936;-60
2022/02/06 00:41:15;;;;;;;;;;;;;;;2.92;83.28;97410.63;4985637;28;19930;-61
2022/02/06 00:43:43;;;;;;;;;;;;;;;2.97;82.98;97401.53;4985390;28;19929;-62
2022/02/06 00:46:12;;;;;;;;;;;;;;;2.96;82.66;97406.19;4985240;28;19929;-60
2022/02/06 00:48:42;;;;;;;;;;;;;;;2.88;82.89;97401.44;4985210;28;19937;-61
2022/02/06 00:53:48;;;;;;;;;;;;;;;2.92;81.47;97405.16;4984747;28;19938;-59
2022/02/06 00:56:14;;;;;;;;;;;;;;;3.01;79.61;97400.56;4985107;28;19930;-60
2022/02/06 00:58:41;;;;;;;;;;;;;;;3.03;78.62;97394.78;4984889;28;20276;-60
2022/02/06 01:01:07;;;;;;;;;;;;;;;3.02;78.15;97388.50;5000324;28;19941;-60
2022/02/06 01:03:34;;;;;;;;;;;;;;;3.11;77.60;97394.03;4985243;28;20016;-60
2022/02/06 01:06:01;;;;;;;;;;;;;;;3.23;76.74;97398.91;4984649;28;19930;-60
2022/02/06 01:08:28;;;;;;;;;;;;;;;3.17;76.28;97390.03;4984003;28;19934;-60
2022/02/06 01:10:55;;;;;;;;;;;;;;;3.17;76.58;97390.03;4984900;28;19934;-60
2022/02/06 01:16:03;;;;;;;;;;;;;;;3.08;75.87;97397.41;4984937;28;19933;-59
2022/02/06 01:18:36;;;;;;;;;;;;;;;3.10;74.68;97400.59;4985015;28;19930;-59
2022/02/06 01:21:15;;;;;;;;;;;;;;;3.13;75.47;97393.72;4985425;28;19930;-61
2022/02/06 01:24:03;;;;;;;;;;;;;;;3.10;75.53;97395.94;4985076;28;19930;-61
2022/02/06 01:31:58;;;;;;;;;;;;;;;3.08;74.71;97386.47;4977145;28;19930;-61
2022/02/06 01:34:36;;;;;;;;;;;;;;;2.89;76.42;97385.84;4984876;28;19933;-62
2022/02/06 01:41:59;;;;;;;;;;;;;;;2.64;79.67;97394.69;4985073;28;19929;-62
2022/02/06 02:13:57;;;;;;;;;;;;;;;1.69;84.75;97418.72;4961910;28;20020;-60
2022/02/06 02:17:11;;;;;;;;;;;;;;;1.68;84.43;97417.09;4962057;28;19937;-61
2022/02/06 02:25:04;;;;;;;;;;;;;;;1.64;83.45;97410.63;4988379;28;20415;-61
2022/02/06 02:46:55;;;;;;;;;;;;;;;1.46;82.04;97421.34;4985108;28;20315;-61
2022/02/06 02:49:25;;;;;;;;;;;;;;;1.56;80.67;97426.59;4987979;28;19929;-61
2022/02/06 02:51:58;;;;;;;;;;;;;;;1.54;80.14;97428.84;4987561;28;19930;-61
2022/02/06 02:54:27;;;;;;;;;;;;;;;1.79;77.54;97443.09;4987172;28;19930;-60
2022/02/06 02:57:08;;;;;;;;;;;;;;;1.80;77.51;97452.91;4987298;28;20503;-61
2022/02/06 03:00:01;;;;;;;;;;;;;;;1.72;78.15;97445.41;4985930;28;19945;-60
2022/02/06 03:02:21;;;;;;;;;;;;;;;1.67;78.78;97453.69;4987753;28;19936;-60
2022/02/06 03:04:53;;;;;;;;;;;;;;;1.66;77.78;97452.09;4987388;28;20360;-61
2022/02/06 03:07:20;;;;;;;;;;;;;;;1.63;79.00;97447.25;4986263;28;19929;-60
2022/02/06 03:09:47;;;;;;;;;;;;;;;1.58;79.33;97443.47;4987541;28;19937;-60
2022/02/06 03:12:17;;;;;;;;;;;;;;;1.51;79.40;97440.38;4987359;28;19930;-60
2022/02/06 03:14:50;;;;;;;;;;;;;;;1.54;78.75;97450.69;4987319;28;19930;-60
2022/02/06 03:17:32;;;;;;;;;;;;;;;1.54;79.19;97456.13;5001687;28;19929;-60
2022/02/06 03:20:06;;;;;;;;;;;;;;;1.50;78.94;97455.09;4987081;28;19941;-60
2022/02/06 03:22:46;;;;;;;;;;;;;;;1.47;78.81;97465.84;4987814;28;19964;-60
2022/02/06 03:25:18;;;;;;;;;;;;;;;1.21;80.29;97470.13;4987733;28;20367;-61
2022/02/06 03:27:45;;;;;;;;;;;;;;;1.23;80.26;97476.09;5001986;28;19930;-61
2022/02/06 03:30:12;;;;;;;;;;;;;;;1.32;79.72;97472.38;4987100;28;19929;-61
2022/02/06 03:32:38;;;;;;;;;;;;;;;1.28;80.16;97468.63;4985778;28;20426;-61
2022/02/06 03:35:05;;;;;;;;;;;;;;;1.26;80.64;97470.84;4986754;28;20339;-60
2022/02/06 03:37:32;;;;;;;;;;;;;;;1.23;80.39;97476.88;4987084;28;19930;-60
2022/02/06 03:40:02;;;;;;;;;;;;;;;1.27;80.13;97482.56;4986971;28;20390;-60
2022/02/06 03:42:34;;;;;;;;;;;;;;;1.15;80.85;97474.06;4986822;28;19930;-61
2022/02/06 03:45:06;;;;;;;;;;;;;;;1.03;82.22;97471.78;4986764;28;19937;-61
2022/02/06 03:47:49;;;;;;;;;;;;;;;0.88;82.38;97474.78;4986813;28;20435;-59
2022/02/06 03:50:17;;;;;;;;;;;;;;;0.82;83.37;97481.41;4986623;28;19930;-61
2022/02/06 03:52:50;;;;;;;;;;;;;;;0.80;82.98;97482.81;4986148;28;20327;-60
2022/02/06 03:55:20;;;;;;;;;;;;;;;0.65;83.15;97475.69;4986671;28;20315;-62
2022/02/06 03:57:47;;;;;;;;;;;;;;;0.74;83.36;97482.13;4985953;28;19929;-61
2022/02/06 04:00:14;;;;;;;;;;;;;;;0.88;81.93;97496.59;4986237;28;19930;-61
2022/02/06 04:02:40;;;;;;;;;;;;;;;0.83;81.03;97493.97;4986494;28;19929;-60
2022/02/06 04:05:07;;;;;;;;;;;;;;;0.72;82.18;97502.59;4986425;28;19937;-61
2022/02/06 04:07:34;;;;;;;;;;;;;;;0.89;81.76;97509.13;4986531;28;19929;-61
2022/02/06 04:10:00;;;;;;;;;;;;;;;0.69;82.85;97506.72;4985893;28;19934;-63
2022/02/06 04:12:29;;;;;;;;;;;;;;;0.79;82.85;97501.09;4984915;28;19930;-60
2022/02/06 04:17:25;;;;;;;;;;;;;;;0.73;82.74;97498.72;4986130;28;19952;-62
2022/02/06 04:19:52;;;;;;;;;;;;;;;0.82;81.98;97511.41;5001066;28;19929;-61
2022/02/06 04:22:20;;;;;;;;;;;;;;;0.84;82.35;97511.91;4986103;28;19940;-62
2022/02/06 04:24:47;;;;;;;;;;;;;;;0.78;82.60;97513.13;4985499;28;19930;-61
2022/02/06 04:27:14;;;;;;;;;;;;;;;0.74;83.17;97512.09;4986230;28;19929;-61
2022/02/06 04:29:41;;;;;;;;;;;;;;;0.80;82.19;97505.47;4984764;28;19936;-61
2022/02/06 04:32:08;;;;;;;;;;;;;;;0.79;82.22;97514.72;4985776;28;19937;-61
2022/02/06 04:34:35;;;;;;;;;;;;;;;0.81;82.40;97522.59;4985472;28;19936;-61
2022/02/06 04:42:23;;;;;;;;;;;;;;;0.63;83.85;97532.44;4985656;28;20024;-59
2022/02/06 05:28:01;;;;;;;;;;;;;;;-0.07;85.88;97571.47;4984944;28;19946;-61
2022/02/06 05:30:42;;;;;;;;;;;;;;;0.08;86.81;97570.50;4985192;28;19930;-61
2022/02/06 05:33:09;;;;;;;;;;;;;;;0.13;86.89;97573.97;4984884;28;20420;-60
2022/02/06 05:35:38;;;;;;;;;;;;;;;0.14;87.02;97566.59;4985309;28;19952;-61
2022/02/06 05:38:04;;;;;;;;;;;;;;;0.15;86.83;97566.31;4985231;28;19930;-60
2022/02/06 05:40:31;;;;;;;;;;;;;;;0.19;86.72;97564.63;4985099;28;20340;-59
2022/02/06 05:42:57;;;;;;;;;;;;;;;0.29;85.82;97591.75;4985180;28;19936;-60
2022/02/06 05:45:24;;;;;;;;;;;;;;;0.39;84.77;97597.06;4999283;28;19977;-60
2022/02/06 05:47:51;;;;;;;;;;;;;;;0.37;84.97;97593.81;4984258;28;20404;-60
2022/02/06 05:50:19;;;;;;;;;;;;;;;0.35;85.02;97584.34;4999317;28;19929;-60
2022/02/06 05:52:45;;;;;;;;;;;;;;;0.30;83.39;97598.78;4983829;28;20801;-60
2022/02/06 05:55:12;;;;;;;;;;;;;;;0.26;82.99;97597.78;4985529;28;19930;-60
2022/02/06 05:57:40;;;;;;;;;;;;;;;0.34;83.37;97593.59;5002980;28;19930;-61
2022/02/06 06:00:07;;;;;;;;;;;;;;;0.22;82.67;97596.75;4988479;28;19929;-61
2022/02/06 06:02:34;;;;;;;;;;;;;;;0.32;83.14;97606.72;4988716;28;19930;-61
2022/02/06 06:05:00;;;;;;;;;;;;;;;0.33;82.87;97598.25;5003333;28;20112;-61
2022/02/06 06:07:27;;;;;;;;;;;;;;;0.39;82.67;97596.25;5003562;28;20498;-61
2022/02/06 06:09:53;;;;;;;;;;;;;;;0.53;81.43;97603.44;5003216;28;19936;-61
2022/02/06 06:12:20;;;;;;;;;;;;;;;0.68;81.31;97599.69;4988697;28;19936;-61
2022/02/06 06:14:47;;;;;;;;;;;;;;;0.81;79.76;97598.94;4988238;28;19929;-62
2022/02/06 06:17:14;;;;;;;;;;;;;;;0.92;78.52;97601.25;4986943;28;19936;-61
2022/02/06 06:19:47;;;;;;;;;;;;;;;1.14;77.12;97592.44;4988720;28;19929;-61
2022/02/06 06:22:14;;;;;;;;;;;;;;;1.29;76.55;97611.31;4988719;28;20411;-62
2022/02/06 06:24:44;;;;;;;;;;;;;;;1.39;75.91;97611.97;4987120;28;19936;-61
2022/02/06 06:27:11;;;;;;;;;;;;;;;1.49;76.11;97622.72;4988451;28;20398;-60
2022/02/06 06:29:38;;;;;;;;;;;;;;;1.56;77.26;97614.94;4988693;28;19951;-61
2022/02/06 06:32:04;;;;;;;;;;;;;;;1.74;76.67;97612.50;4987801;28;19929;-61
2022/02/06 06:34:32;;;;;;;;;;;;;;;1.70;77.50;97622.38;4986304;28;19937;-61
2022/02/06 06:36:58;;;;;;;;;;;;;;;1.82;77.90;97614.53;4987755;28;19930;-61
2022/02/06 06:39:41;;;;;;;;;;;;;;;-0.08;77.41;97354.81;4987485;28;19930;-61
2022/02/06 06:42:08;;;;;;;;;;;;;;;1.99;75.67;97620.22;4988061;28;19941;-61
2022/02/06 06:44:36;;;;;;;;;;;;;;;2.14;75.85;97612.53;4988336;28;19930;-61
2022/02/06 06:47:03;;;;;;;;;;;;;;;2.40;75.59;97621.06;4987695;28;19930;-61
2022/02/06 06:49:29;;;;;;;;;;;;;;;2.60;72.99;97620.66;4986125;28;19933;-60
2022/02/06 06:51:56;;;;;;;;;;;;;;;2.79;72.11;97629.53;5002618;28;19930;-60
2022/02/06 06:54:23;;;;;;;;;;;;;;;3.01;72.37;97632.34;4987619;28;19930;-62
2022/02/06 06:57:01;;;;;;;;;;;;;;;3.14;70.73;97642.44;4985842;28;20469;-61
2022/02/06 07:02:16;;;;;;;;;;;;;;;3.66;69.95;97625.31;4987688;28;20197;-60
2022/02/06 07:04:41;;;;;;;;;;;;;;;3.88;68.86;97614.34;4987508;28;20414;-60
2022/02/06 07:07:08;;;;;;;;;;;;;;;3.92;67.50;97620.81;4986885;28;19930;-59
2022/02/06 07:09:35;;;;;;;;;;;;;;;4.18;66.82;97619.03;4986191;28;20329;-61
2022/02/06 07:12:02;;;;;;;;;;;;;;;4.49;63.55;97658.19;4987964;28;20470;-60
2022/02/06 07:14:28;;;;;;;;;;;;;;;4.49;63.24;97624.47;4987314;28;19930;-60
2022/02/06 07:16:55;;;;;;;;;;;;;;;4.43;65.19;97618.34;4987318;28;19937;-60
2022/02/06 07:19:21;;;;;;;;;;;;;;;4.29;65.37;97625.84;4987108;28;19940;-61
2022/02/06 07:21:48;;;;;;;;;;;;;;;4.60;64.69;97629.38;4986809;28;19929;-59
2022/02/06 07:24:15;;;;;;;;;;;;;;;4.58;62.47;97633.56;4985368;28;20402;-60
2022/02/06 07:26:48;;;;;;;;;;;;;;;4.75;62.22;97627.31;4987037;28;20025;-60
2022/02/06 07:29:16;;;;;;;;;;;;;;;4.87;62.36;97633.00;4987000;28;19930;-61
2022/02/06 07:31:45;;;;;;;;;;;;;;;5.03;62.13;97634.97;4985355;28;19930;-61
2022/02/06 07:34:12;;;;;;;;;;;;;;;5.26;60.13;97632.91;4986762;28;19937;-59
2022/02/06 07:36:38;;;;;;;;;;;;;;;5.45;60.30;97630.66;4986328;28;19936;-61
2022/02/06 07:39:05;;;;;;;;;;;;;;;5.42;59.86;97634.06;5001248;28;19930;-60
2022/02/06 07:41:31;;;;;;;;;;;;;;;5.68;58.42;97634.84;4986654;28;19944;-61
2022/02/06 07:43:58;;;;;;;;;;;;;;;5.92;58.14;97630.50;4986657;28;20360;-62
2022/02/06 07:46:30;;;;;;;;;;;;;;;6.13;57.15;97631.41;4986430;28;19930;-61
2022/02/06 07:49:02;;;;;;;;;;;;;;;6.42;57.99;97627.94;5001794;28;19929;-60
2022/02/06 07:51:29;;;;;;;;;;;;;;;6.75;56.45;97623.41;4986497;28;19930;-61
2022/02/06 07:53:55;;;;;;;;;;;;;;;6.84;54.84;97624.19;5001254;28;20008;-61
2022/02/06 07:56:22;;;;;;;;;;;;;;;7.13;54.83;97626.13;5000819;28;19930;-61
2022/02/06 07:58:48;;;;;;;;;;;;;;;7.41;54.41;97618.97;4984932;28;20356;-62
2022/02/06 08:01:15;;;;;;;;;;;;;;;7.67;52.40;97608.53;4985529;28;19930;-61
2022/02/06 08:03:41;;;;;;;;;;;;;;;7.96;48.90;97616.69;4986035;28;19951;-60
2022/02/06 08:06:10;;;;;;;;;;;;;;;7.58;48.62;97523.16;4986033;28;19930;-61
2022/02/06 08:08:36;;;;;;;;;;;;;;;8.23;48.60;97615.31;4986572;28;20016;-60
2022/02/06 08:11:04;;;;;;;;;;;;;;;6.68;47.63;97350.63;4985976;28;19929;-60
2022/02/06 08:13:42;;;;;;;;;;;;;;;8.34;48.53;97599.94;4984946;28;19947;-61
2022/02/06 08:16:09;;;;;;;;;;;;;;;8.59;49.13;97609.84;4985997;28;19937;-61
2022/02/06 08:18:40;;;;;;;;;;;;;;;8.81;47.96;97609.41;5000151;28;19930;-61
2022/02/06 08:21:07;;;;;;;;;;;;;;;8.96;47.11;97611.50;4985915;28;19936;-62
2022/02/06 08:23:44;;;;;;;;;;;;;;;9.19;46.72;97616.19;4986028;28;19929;-61
2022/02/06 08:26:10;;;;;;;;;;;;;;;9.12;47.18;97609.63;4985874;28;19945;-64
2022/02/06 08:28:39;;;;;;;;;;;;;;;9.12;47.08;97604.09;4985576;28;19976;-61
2022/02/06 08:31:05;;;;;;;;;;;;;;;9.07;46.54;97607.91;4985545;28;19937;-60
2022/02/06 08:33:32;;;;;;;;;;;;;;;9.04;46.63;97613.34;5000057;28;19929;-62
2022/02/06 08:35:59;;;;;;;;;;;;;;;9.25;46.78;97611.22;4985463;28;19929;-62
2022/02/06 08:38:26;;;;;;;;;;;;;;;9.38;46.59;97606.47;4985611;28;20318;-62
2022/02/06 08:40:53;;;;;;;;;;;;;;;8.99;48.02;97613.56;4985918;28;20295;-60
2022/02/06 08:43:20;;;;;;;;;;;;;;;8.65;48.75;97616.75;4984171;28;19936;-62
2022/02/06 08:45:47;;;;;;;;;;;;;;;8.89;49.33;97614.00;4983836;28;19936;-61
2022/02/06 08:48:13;;;;;;;;;;;;;;;9.03;49.32;97608.94;4984019;28;20295;-63
2022/02/06 08:50:40;;;;;;;;;;;;;;;9.08;48.70;97608.72;4985410;28;19930;-63
2022/02/06 08:53:06;;;;;;;;;;;;;;;8.91;50.35;97603.44;4985220;28;19930;-59
2022/02/06 08:55:33;;;;;;;;;;;;;;;9.24;49.71;97606.84;4985850;28;19929;-61
2022/02/06 08:58:00;;;;;;;;;;;;;;;8.96;50.83;97608.72;4984725;28;19930;-61
2022/02/06 09:00:26;;;;;;;;;;;;;;;9.14;49.13;97604.56;4985343;28;20344;-60
2022/02/06 09:02:54;;;;;;;;;;;;;;;9.37;47.25;97610.41;4985361;28;20414;-61
2022/02/06 09:05:22;;;;;;;;;;;;;;;9.49;47.17;97608.41;4983729;28;19930;-61
2022/02/06 09:07:49;;;;;;;;;;;;;;;9.70;46.02;97603.53;4985497;28;19933;-62
2022/02/06 09:10:16;;;;;;;;;;;;;;;9.94;45.20;97608.16;4984943;28;19930;-58
2022/02/06 09:12:49;;;;;;;;;;;;;;;10.19;43.50;97610.50;4984666;28;20427;-60
2022/02/06 09:15:16;;;;;;;;;;;;;;;10.37;42.51;97606.22;4984890;28;19930;-61
2022/02/06 09:17:43;;;;;;;;;;;;;;;10.49;42.08;97603.41;4984856;28;19973;-63
2022/02/06 09:20:11;;;;;;;;;;;;;;;10.48;41.97;97596.22;4985821;28;19929;-58
2022/02/06 09:22:38;;;;;;;;;;;;;;;10.59;42.03;97597.31;4983456;28;19929;-59
2022/02/06 09:25:05;;;;;;;;;;;;;;;10.67;41.10;97585.25;4985050;28;20414;-60
2022/02/06 09:27:35;;;;;;;;;;;;;;;10.81;41.33;97592.31;4984997;28;19946;-63
2022/02/06 09:30:17;;;;;;;;;;;;;;;10.91;41.33;97602.88;4983718;28;19936;-60
2022/02/06 09:35:11;;;;;;;;;;;;;;;11.01;40.59;97594.00;4984563;28;19934;-60
2022/02/06 09:37:37;;;;;;;;;;;;;;;10.82;41.63;97582.81;4999835;28;19941;-61
2022/02/06 09:40:08;;;;;;;;;;;;;;;10.88;40.27;97578.63;4984553;28;20480;-60
2022/02/06 09:42:35;;;;;;;;;;;;;;;11.16;39.89;97573.78;4983426;28;19930;-61
2022/02/06 09:45:02;;;;;;;;;;;;;;;11.09;40.44;97570.81;4984123;28;19937;-63
2022/02/06 09:47:30;;;;;;;;;;;;;;;11.06;39.84;97572.34;4984289;28;20396;-62
2022/02/06 09:49:58;;;;;;;;;;;;;;;11.03;39.91;97561.19;4984091;28;20040;-60
2022/02/06 09:52:25;;;;;;;;;;;;;;;11.39;39.79;97561.63;4983774;28;19937;-63
2022/02/06 09:54:53;;;;;;;;;;;;;;;11.42;38.27;97562.84;4984050;28;19988;-63
2022/02/06 09:57:30;;;;;;;;;;;;;;;11.23;37.76;97548.97;4983242;28;20029;-60
2022/02/06 09:59:58;;;;;;;;;;;;;;;11.47;37.36;97549.53;4983601;28;19936;-60
2022/02/06 10:02:30;;;;;;;;;;;;;;;11.61;37.56;97549.00;4983963;28;19936;-61
2022/02/06 10:04:58;;;;;;;;;;;;;;;11.72;35.92;97539.78;4984719;28;19929;-62
2022/02/06 10:07:37;;;;;;;;;;;;;;;11.86;36.49;97533.69;4998640;28;19969;-64
2022/02/06 10:10:06;;;;;;;;;;;;;;;11.88;36.17;97531.34;4983855;28;20418;-64
2022/02/06 10:12:35;;;;;;;;;;;;;;;11.73;35.82;97529.44;4984063;28;19948;-59
2022/02/06 10:15:03;;;;;;;;;;;;;;;12.16;36.28;97526.34;4982579;28;20474;-63
2022/02/06 10:17:30;;;;;;;;;;;;;;;12.48;35.27;97522.16;4982538;28;19961;-59
2022/02/06 10:19:58;;;;;;;;;;;;;;;12.59;34.82;97517.59;4984114;28;19949;-63
2022/02/06 10:22:26;;;;;;;;;;;;;;;12.58;35.17;97521.56;4999238;28;19930;-63
2022/02/06 10:25:03;;;;;;;;;;;;;;;12.03;34.98;97411.03;4983320;28;19930;-60
2022/02/06 10:27:49;;;;;;;;;;;;;;;12.61;35.15;97508.88;4982757;28;20369;-61
2022/02/06 10:30:36;;;;;;;;;;;;;;;12.76;33.53;97500.38;4984602;28;19948;-64
2022/02/06 10:33:11;;;;;;;;;;;;;;;12.55;33.48;97505.59;4982842;28;19930;-65
2022/02/06 10:35:40;;;;;;;;;;;;;;;12.63;33.63;97498.97;4984341;28;19929;-60
2022/02/06 10:38:16;;;;;;;;;;;;;;;12.76;33.88;97499.56;4999452;28;20005;-60
2022/02/06 10:40:44;;;;;;;;;;;;;;;12.43;34.97;97491.91;4984798;28;20348;-61
2022/02/06 10:43:11;;;;;;;;;;;;;;;12.18;34.67;97485.13;4986819;28;19965;-62
2022/02/06 10:45:38;;;;;;;;;;;;;;;12.18;34.90;97482.34;4987340;28;20478;-67
2022/02/06 10:48:18;;;;;;;;;;;;;;;12.48;33.09;97466.59;4988159;28;19953;-64
2022/02/06 10:50:45;;;;;;;;;;;;;;;12.72;34.24;97470.94;4987401;28;19980;-64
2022/02/06 10:53:14;;;;;;;;;;;;;;;12.96;32.20;97460.16;4983332;28;19934;-60
2022/02/06 10:55:53;;;;;;;;;;;;;;;13.21;31.61;97455.00;4967977;28;19930;-65
2022/02/06 10:58:24;;;;;;;;;;;;;;;13.24;30.01;97452.25;4967815;28;19937;-63
2022/02/06 11:00:50;;;;;;;;;;;;;;;13.37;29.54;97450.81;4968208;28;19949;-60
2022/02/06 11:03:23;;;;;;;;;;;;;;;13.36;28.62;97434.50;4968322;28;20014;-62
2022/02/06 11:05:52;;;;;;;;;;;;;;;13.20;28.09;97442.25;4968178;28;19934;-63
2022/02/06 11:08:29;;;;;;;;;;;;;;;13.06;28.36;97437.31;4968293;28;19938;-62
2022/02/06 11:11:00;;;;;;;;;;;;;;;13.00;27.82;97436.03;4966592;28;20496;-60
2022/02/06 11:13:27;;;;;;;;;;;;;;;13.09;28.40;97435.75;4968301;28;19965;-61
2022/02/06 11:15:55;;;;;;;;;;;;;;;13.15;28.05;97434.25;4967632;28;19972;-61
2022/02/06 11:18:26;;;;;;;;;;;;;;;13.21;27.87;97425.19;4966083;28;19934;-61
2022/02/06 11:20:58;;;;;;;;;;;;;;;13.33;27.60;97419.38;4967680;28;20484;-63
2022/02/06 11:23:37;;;;;;;;;;;;;;;13.33;28.46;97430.50;4966020;28;20377;-62
2022/02/06 11:26:10;;;;;;;;;;;;;;;13.43;28.42;97424.28;4968077;28;19940;-60
2022/02/06 11:28:37;;;;;;;;;;;;;;;13.55;28.87;97415.66;4967600;28;20020;-60
2022/02/06 11:31:04;;;;;;;;;;;;;;;13.47;28.63;97413.97;4967871;28;19941;-61
2022/02/06 11:33:31;;;;;;;;;;;;;;;13.59;29.46;97410.94;4967495;28;20556;-63
2022/02/06 11:36:07;;;;;;;;;;;;;;;13.57;29.07;97407.75;4967126;28;19949;-61
2022/02/06 11:44:45;;;;;;;;;;;;;;;13.59;28.97;97391.44;4968098;28;19992;-60
2022/02/06 11:47:11;;;;;;;;;;;;;;;13.67;29.22;97390.34;4966926;28;19930;-62
2022/02/06 11:49:39;;;;;;;;;;;;;;;13.67;29.62;97387.56;4965713;28;19934;-60
2022/02/06 11:52:06;;;;;;;;;;;;;;;13.61;29.39;97375.16;4975263;28;19930;-63
2022/02/06 11:54:35;;;;;;;;;;;;;;;13.67;29.32;97378.41;4985998;28;19936;-62
2022/02/06 11:57:23;;;;;;;;;;;;;;;13.92;29.88;97376.69;4986495;28;19936;-63
2022/02/06 12:00:16;;;;;;;;;;;;;;;13.97;29.43;97375.53;4986931;28;19940;-61
2022/02/06 12:02:47;;;;;;;;;;;;;;;14.04;29.52;97356.88;4984339;28;20328;-59
2022/02/06 12:05:17;;;;;;;;;;;;;;;14.09;30.34;97361.28;4986414;28;19930;-63
2022/02/06 12:07:55;;;;;;;;;;;;;;;14.03;30.56;97355.28;4986125;28;19930;-63
2022/02/06 12:10:34;;;;;;;;;;;;;;;14.01;29.63;97354.06;4986014;28;19933;-60
2022/02/06 12:13:13;;;;;;;;;;;;;;;14.08;30.63;97352.16;4985927;28;19930;-63
2022/02/06 12:15:49;;;;;;;;;;;;;;;14.11;30.46;97353.34;5000275;28;19930;-62
2022/02/06 12:18:23;;;;;;;;;;;;;;;13.99;30.00;97356.44;5000816;28;19937;-61
2022/02/06 12:20:53;;;;;;;;;;;;;;;14.00;30.42;97353.28;4986724;28;20368;-61
2022/02/06 12:23:38;;;;;;;;;;;;;;;13.89;29.95;97346.00;4985958;28;19936;-61
2022/02/06 12:26:26;;;;;;;;;;;;;;;13.81;30.73;97366.63;4985759;28;20451;-59
2022/02/06 12:29:14;;;;;;;;;;;;;;;14.00;30.72;97335.75;4985870;28;20028;-62
2022/02/06 12:31:45;;;;;;;;;;;;;;;14.07;30.71;97341.41;4985528;28;20061;-65
2022/02/06 12:34:40;;;;;;;;;;;;;;;14.13;30.81;97329.47;5000374;28;19933;-63
2022/02/06 12:37:22;;;;;;;;;;;;;;;14.13;31.24;97323.13;5000661;28;19929;-60
2022/02/06 12:39:50;;;;;;;;;;;;;;;14.04;31.29;97326.25;5000934;28;19934;-65
2022/02/06 12:42:24;;;;;;;;;;;;;;;14.14;31.50;97314.38;4985628;28;19930;-61
2022/02/06 12:44:51;;;;;;;;;;;;;;;14.05;31.43;97318.69;4985799;28;19930;-60
2022/02/06 12:47:18;;;;;;;;;;;;;;;14.09;32.54;97316.72;4999886;28;19930;-61
2022/02/06 12:49:46;;;;;;;;;;;;;;;14.21;30.05;97324.78;4985959;28;19940;-62
2022/02/06 12:52:13;;;;;;;;;;;;;;;14.13;30.19;97306.41;4985433;28;20399;-61
2022/02/06 12:54:39;;;;;;;;;;;;;;;14.10;30.33;97307.97;4985336;28;19929;-60
2022/02/06 12:57:06;;;;;;;;;;;;;;;14.08;30.13;97309.56;4985472;28;19971;-62
2022/02/06 12:59:33;;;;;;;;;;;;;;;14.06;30.28;97307.16;4986065;28;19930;-62
2022/02/06 13:02:00;;;;;;;;;;;;;;;13.84;30.36;97304.56;4985735;28;20355;-60
2022/02/06 13:04:30;;;;;;;;;;;;;;;13.73;30.64;97309.25;4983951;28;19929;-63
2022/02/06 13:07:02;;;;;;;;;;;;;;;13.62;31.93;97304.38;4984385;28;19929;-62
2022/02/06 13:09:39;;;;;;;;;;;;;;;13.68;31.49;97297.31;4985367;28;19936;-59
2022/02/06 13:12:21;;;;;;;;;;;;;;;13.71;31.76;97292.94;4984982;28;19937;-62
2022/02/06 13:20:41;;;;;;;;;;;;;;;13.80;31.97;97292.63;4977177;28;19936;-60
2022/02/06 13:23:18;;;;;;;;;;;;;;;13.70;32.11;97292.13;4984883;28;20376;-60
2022/02/06 13:31:40;;;;;;;;;;;;;;;13.46;32.55;97278.81;4976779;28;19936;-60
2022/02/06 13:39:11;;;;;;;;;;;;;;;13.49;33.19;97269.69;4985391;28;20021;-61
2022/02/06 13:41:38;;;;;;;;;;;;;;;13.54;33.60;97274.91;4984725;28;19930;-64
2022/02/06 13:44:17;;;;;;;;;;;;;;;13.56;33.23;97266.19;4985291;28;19936;-63
2022/02/06 13:46:45;;;;;;;;;;;;;;;13.49;32.81;97266.09;4984972;28;20333;-61
2022/02/06 13:49:12;;;;;;;;;;;;;;;13.55;32.60;97265.38;4983330;28;19937;-60
2022/02/06 13:51:46;;;;;;;;;;;;;;;13.54;33.16;97268.53;4984723;28;19940;-60
2022/02/06 13:54:13;;;;;;;;;;;;;;;13.52;32.89;97271.69;4984871;28;19937;-63
2022/02/06 13:56:43;;;;;;;;;;;;;;;13.58;32.94;97269.34;4984284;28;19936;-63
2022/02/06 13:59:11;;;;;;;;;;;;;;;13.50;32.54;97262.13;4983280;28;20024;-60
2022/02/06 14:01:38;;;;;;;;;;;;;;;13.53;32.64;97261.38;5000099;28;19930;-60
2022/02/06 14:04:06;;;;;;;;;;;;;;;13.47;32.43;97258.13;4985111;28;19972;-60
2022/02/06 14:06:42;;;;;;;;;;;;;;;13.48;32.61;97251.38;4984467;28;19956;-62
2022/02/06 14:12:05;;;;;;;;;;;;;;;13.52;33.24;97255.00;4980697;28;19937;-60
2022/02/06 14:14:36;;;;;;;;;;;;;;;13.48;33.37;97256.94;4984670;28;19930;-60
2022/02/06 14:17:27;;;;;;;;;;;;;;;13.35;33.98;97250.09;4987189;28;20419;-63
2022/02/06 14:19:55;;;;;;;;;;;;;;;13.30;34.22;97246.84;4988227;28;20020;-62
2022/02/06 14:22:32;;;;;;;;;;;;;;;13.42;33.03;97239.00;4988301;28;19930;-60
2022/02/06 14:25:01;;;;;;;;;;;;;;;13.30;34.11;97250.44;4988349;28;20028;-63
2022/02/06 14:27:35;;;;;;;;;;;;;;;13.36;32.88;97248.06;4988635;28;20352;-63
2022/02/06 14:30:05;;;;;;;;;;;;;;;13.39;33.25;97250.91;4987863;28;20490;-61
2022/02/06 14:32:31;;;;;;;;;;;;;;;13.39;32.99;97241.75;4988238;28;19940;-63
2022/02/06 14:34:58;;;;;;;;;;;;;;;13.33;33.41;97235.75;4986318;28;20363;-64
2022/02/06 14:37:27;;;;;;;;;;;;;;;13.27;33.37;97240.06;5002859;28;20294;-60
2022/02/06 14:40:05;;;;;;;;;;;;;;;13.32;33.57;97234.16;4986526;28;20033;-62
2022/02/06 14:42:34;;;;;;;;;;;;;;;13.33;33.82;97241.31;4988038;28;19929;-62
2022/02/06 14:45:10;;;;;;;;;;;;;;;13.23;33.28;97236.44;5002768;28;20423;-60
2022/02/06 14:47:37;;;;;;;;;;;;;;;13.15;34.59;97234.75;4988473;28;19930;-63
2022/02/06 14:50:15;;;;;;;;;;;;;;;13.04;34.11;97239.41;4987523;28;19936;-63
2022/02/06 14:52:42;;;;;;;;;;;;;;;13.08;34.22;97240.28;4987441;28;19930;-63
2022/02/06 14:55:09;;;;;;;;;;;;;;;11.67;33.86;97014.81;5001954;28;19937;-63
2022/02/06 14:57:35;;;;;;;;;;;;;;;13.03;34.38;97237.03;4985694;28;19941;-63
2022/02/06 15:00:03;;;;;;;;;;;;;;;12.93;34.70;97227.34;4987387;28;19930;-63
2022/02/06 15:02:30;;;;;;;;;;;;;;;12.91;35.11;97229.75;4987619;28;19936;-62
2022/02/06 15:04:56;;;;;;;;;;;;;;;12.84;35.22;97226.88;4987629;28;19930;-62
2022/02/06 15:07:23;;;;;;;;;;;;;;;12.70;35.68;97235.03;4987770;28;19936;-62
2022/02/06 15:09:52;;;;;;;;;;;;;;;12.43;36.14;97230.75;4987837;28;19952;-61
2022/02/06 15:12:18;;;;;;;;;;;;;;;12.18;37.23;97235.97;4987312;28;19952;-63
2022/02/06 15:14:45;;;;;;;;;;;;;;;11.95;37.59;97237.19;4987668;28;19936;-61
2022/02/06 15:17:18;;;;;;;;;;;;;;;11.84;37.52;97230.69;4987086;28;19933;-62
2022/02/06 15:19:47;;;;;;;;;;;;;;;11.67;38.11;97242.31;4986068;28;19934;-60
2022/02/06 15:22:14;;;;;;;;;;;;;;;11.50;38.64;97240.03;4987173;28;19934;-61
2022/02/06 15:24:41;;;;;;;;;;;;;;;11.42;39.17;97241.09;4985864;28;19936;-62
2022/02/06 15:27:08;;;;;;;;;;;;;;;11.23;40.05;97243.94;4986533;28;20045;-64
2022/02/06 15:29:35;;;;;;;;;;;;;;;10.95;40.60;97255.31;4986972;28;19936;-61
2022/02/06 15:32:01;;;;;;;;;;;;;;;10.86;41.07;97251.19;4985469;28;19930;-63
2022/02/06 15:34:32;;;;;;;;;;;;;;;10.75;41.19;97255.72;4987102;28;19936;-64
2022/02/06 15:37:02;;;;;;;;;;;;;;;10.55;41.44;97247.41;4986980;28;19937;-63
2022/02/06 15:39:37;;;;;;;;;;;;;;;10.47;41.86;97245.66;5001655;28;19968;-63
2022/02/06 15:42:12;;;;;;;;;;;;;;;10.28;42.52;97256.75;4987164;28;19936;-65
2022/02/06 15:44:41;;;;;;;;;;;;;;;10.12;43.77;97255.97;4987626;28;20395;-61
2022/02/06 15:47:08;;;;;;;;;;;;;;;10.08;44.53;97254.31;4987215;28;19973;-63
2022/02/06 15:49:35;;;;;;;;;;;;;;;10.02;44.36;97262.03;4987183;28;19937;-63